Sunday, January 21, 2018, 8:35 PM GMT
Back to Local

CYMX, Montreal / Mirabel

Location: , , Canada Lat: 45.683
Local Time: 8:35 PM GMT (20:35 GMT) Lon: -74.033
Time Zone: GMT Elev: 269 ft

Show me the last for .
Show Decoded

2018-01-21 20:00 METAR CYMX 212000Z 09004KT 45SM OVC028 M02/M09 A3015 RMK SC8 SLP215 =
2018-01-21 19:00 METAR CYMX 211900Z 06003KT 020V080 45SM OVC028 M02/M10 A3013 RMK SC8 SLP210 =
2018-01-21 18:00 METAR CYMX 211800Z 07003KT 350V090 45SM BKN027 OVC055 M02/M09 A3013 RMK SC6SC2
                 SLP208 =
2018-01-21 17:00 METAR CYMX 211700Z 05003KT 45SM BKN030 OVC055 M02/M10 A3014 RMK SC6SC2 SLP212 =
2018-01-21 16:00 METAR CYMX 211600Z 08003KT 45SM BKN031 OVC055 M02/M10 A3015 RMK SC6SC2 SLP215 =
2018-01-21 15:50 METAR CYMX 211550Z 09003KT 45SM BKN031 OVC055 M02/M09 A3014 RMK SC7SC1 SLP214 =
2018-01-21 15:25 METAR CYMX 211525Z 10004KT 45SM -SN OVC030 M03/M10 A3015 RMK SC8 SLP216 =
2018-01-21 15:00 METAR CYMX 211500Z 09003KT 030V100 45SM BKN030 OVC055 M03/M08 A3015 RMK SC7SC1
                 SLP217 =
2018-01-21 14:00 METAR CYMX 211400Z 35002KT 45SM BKN031 BKN055 M02/M09 A3014 RMK SC6SC1 SLP212 =
2018-01-21 13:00 METAR CYMX 211300Z 33002KT 45SM SCT034 BKN055 M02/M10 A3011 RMK SC4SC3 SLP203 =
2018-01-21 12:00 METAR CYMX 211200Z 32003KT 25SM BKN033 M02/M10 A3010 RMK SC7 SLP197 =
2018-01-21 11:00 METAR CYMX 211100Z 33005KT 25SM BKN036 OVC060 M02/M10 A3008 RMK SC6SC2 SLP192 =
2018-01-21 10:00 METAR CYMX 211000Z 28004KT 240V360 25SM BKN037 OVC060 M02/M09 A3005 RMK SC5SC3
                 SLP183 =
2018-01-21 09:00 METAR CYMX 210900Z 28004KT 240V340 25SM SCT048 OVC065 M02/M09 A3003 RMK SC3SC5
                 SLP176 =
2018-01-21 08:00 METAR CYMX 210800Z 27004KT 230V310 25SM OVC060 M01/M08 A3002 RMK SC8 SLP171 =
2018-01-21 07:00 METAR CYMX 210700Z 28004KT 220V320 25SM OVC057 M01/M08 A2999 RMK SC8 SLP161 =
2018-01-21 06:00 METAR CYMX 210600Z 31007G16KT 230V340 25SM OVC059 M00/M08 A2996 RMK SC8 SLP151 =
2018-01-21 05:00 METAR CYMX 210500Z 33006KT 25SM BKN063 OVC140 M00/M07 A2995 RMK SC7AC1 SLP146 =
2018-01-21 04:00 METAR CYMX 210400Z 32007KT 25SM SCT040 OVC064 01/M05 A2992 RMK SC3SC5 SLP136 =
2018-01-21 03:00 METAR CYMX 210300Z 25006KT 25SM OVC042 02/M04 A2989 RMK SC8 SLP126 =
2018-01-21 02:00 METAR CYMX 210200Z 28005KT 240V310 25SM OVC037 02/M03 A2988 RMK SC8 SLP123 =
2018-01-21 01:31 METAR CYMX 210131Z 28005KT 220V300 25SM BKN039 OVC060 02/M03 A2987 RMK SC7SC1
                 SLP119 =
2018-01-21 01:00 METAR CYMX 210100Z 28003KT 250V340 25SM BKN041 OVC060 03/M02 A2986 RMK SC6SC2
                 SLP116 =
2018-01-21 00:00 METAR CYMX 210000Z 25004KT 20SM SCT032 BKN054 03/M01 A2983 RMK SC3SC4 SLP105 =
2018-01-20 23:00 METAR CYMX 202300Z 27007KT 240V310 20SM BKN032 OVC063 03/M01 A2980 RMK SC6SC2
                 PRESRR SLP095 =
2018-01-20 22:00 METAR CYMX 202200Z 25009G20KT 20SM SCT040 OVC063 04/M01 A2975 RMK SC4SC4 PRESRR
                 SLP078 =
2018-01-20 21:00 METAR CYMX 202100Z 25009G21KT 220V290 20SM FEW042 OVC060 04/M01 A2969 RMK SC2SC6
                 SLP060 =

Support USWX by starting your Amazon purchase here.